createdAt,value
2019-01-19T14:07:43.563Z,19.60
2019-01-19T14:11:10.407Z,19.90
2019-01-19T14:14:36.896Z,18.40
2019-01-19T14:18:13.977Z,16.80
2019-01-19T14:21:31.407Z,15.30
2019-01-19T14:25:14.783Z,13.70
2019-01-19T14:28:50.179Z,12.70
2019-01-19T14:32:53.501Z,11.80
2019-01-19T14:36:30.871Z,10.80
2019-01-19T14:40:07.427Z,10.10
2019-01-19T14:43:58.165Z,9.70
2019-01-19T14:46:55.833Z,9.60
2019-01-19T14:50:42.498Z,9.60
2019-01-19T14:53:53.453Z,9.40
2019-01-19T14:57:23.573Z,9.10
2019-01-19T15:00:46.447Z,8.90
2019-01-19T15:04:06.077Z,8.50
2019-01-19T15:07:45.463Z,8.00
2019-01-19T15:11:10.716Z,7.30
2019-01-19T15:14:27.516Z,6.80
2019-01-19T15:18:07.496Z,6.40
2019-01-19T15:21:27.485Z,6.30
2019-01-19T15:24:28.407Z,6.50
2019-01-19T15:27:33.968Z,6.70
2019-01-19T15:30:50.054Z,6.50
2019-01-19T15:34:10.579Z,6.20
2019-01-19T15:37:54.163Z,5.80
2019-01-19T15:41:33.873Z,5.30
2019-01-19T15:44:43.604Z,4.70
2019-01-19T15:47:59.584Z,4.10
2019-01-19T15:51:43.074Z,3.60
2019-01-19T15:55:19.362Z,3.20
2019-01-19T15:58:54.946Z,2.80
2019-01-19T16:02:21.468Z,2.40
2019-01-19T16:06:06.283Z,2.00
2019-01-19T16:09:23.655Z,1.70
2019-01-19T16:13:10.359Z,1.40
2019-01-19T16:16:49.760Z,1.20
2019-01-19T16:20:43.029Z,1.00
2019-01-19T16:24:36.039Z,0.70
2019-01-19T16:27:56.870Z,0.50
2019-01-19T16:31:24.002Z,0.30
2019-01-19T16:35:08.492Z,0.20
2019-01-19T16:38:31.004Z,0.00
2019-01-19T16:42:13.725Z,-0.10
2019-01-19T16:45:49.997Z,-0.30
2019-01-19T16:49:25.544Z,-0.40
2019-01-19T16:53:04.875Z,-0.50
2019-01-19T16:56:31.128Z,-0.60
2019-01-19T17:00:14.342Z,-0.70
2019-01-19T17:03:30.049Z,-0.80
2019-01-19T17:07:07.979Z,-0.90
2019-01-19T17:10:57.770Z,-1.00
2019-01-19T17:14:09.523Z,-1.10
2019-01-19T17:17:46.645Z,-1.20
2019-01-19T17:21:19.618Z,-1.30
2019-01-19T17:24:45.628Z,-1.30
2019-01-19T17:28:03.864Z,-1.40
2019-01-19T17:31:14.293Z,-1.50
2019-01-19T17:34:20.581Z,-1.60
2019-01-19T17:37:47.500Z,-1.70
2019-01-19T17:41:07.431Z,-1.80
2019-01-19T17:45:05.625Z,-1.80
2019-01-19T17:48:39.000Z,-1.90
2019-01-19T17:51:56.643Z,-1.90
2019-01-19T17:55:17.484Z,-2.00
2019-01-19T17:58:38.934Z,-2.10
2019-01-19T18:02:11.236Z,-2.10
2019-01-19T18:06:00.843Z,-2.10
2019-01-19T18:09:47.256Z,-2.20
2019-01-19T18:13:33.764Z,-2.20
2019-01-19T18:16:57.311Z,-2.20
2019-01-19T18:20:26.245Z,-2.30
2019-01-19T18:23:47.338Z,-2.30
2019-01-19T18:27:34.984Z,-2.40
2019-01-19T18:31:35.238Z,-2.40
2019-01-19T18:35:00.530Z,-2.40
2019-01-19T18:38:09.343Z,-2.50
2019-01-19T18:41:27.245Z,-2.60
2019-01-19T18:44:53.243Z,-2.60
2019-01-19T18:48:05.664Z,-2.70
2019-01-19T18:51:57.443Z,-2.70
2019-01-19T18:55:42.540Z,-2.70
2019-01-19T18:59:04.514Z,-2.80
2019-01-19T19:02:42.835Z,-2.90
2019-01-19T19:06:33.041Z,-3.00
2019-01-19T19:10:08.474Z,-3.00
2019-01-19T19:13:50.420Z,-3.00
2019-01-19T19:17:43.760Z,-3.10
2019-01-19T19:21:22.372Z,-3.10
2019-01-19T19:25:24.030Z,-3.20
2019-01-19T19:28:58.831Z,-3.20
2019-01-19T19:32:22.105Z,-3.20
2019-01-19T19:35:58.745Z,-3.20
2019-01-19T19:39:28.389Z,-3.20
2019-01-19T19:43:10.856Z,-3.30
2019-01-19T19:46:40.811Z,-3.40
2019-01-19T19:50:26.889Z,-3.40
2019-01-19T19:53:04.488Z,-3.40
2019-01-19T19:55:37.910Z,-3.40
2019-01-19T19:58:15.556Z,-3.40
2019-01-19T20:00:53.109Z,-3.40
2019-01-19T20:03:30.741Z,-3.40
2019-01-19T20:06:08.299Z,-3.40
2019-01-19T20:08:45.876Z,-3.40
2019-01-19T20:11:23.451Z,-3.30
2019-01-19T20:14:01.041Z,-3.30
2019-01-19T20:16:41.077Z,-3.30
2019-01-19T20:19:18.651Z,-3.30
2019-01-19T20:21:56.174Z,-3.30
2019-01-19T20:24:33.771Z,-3.30
2019-01-19T20:27:11.357Z,-3.30
2019-01-19T20:29:49.057Z,-3.30
2019-01-19T20:32:26.623Z,-3.30
2019-01-19T20:35:04.228Z,-3.30
2019-01-19T20:37:41.777Z,-3.30
2019-01-19T20:40:24.285Z,-3.40
2019-01-19T20:42:56.976Z,-3.40
2019-01-19T20:45:34.617Z,-3.40
2019-01-19T20:48:12.181Z,-3.40
2019-01-19T20:50:49.788Z,-3.40
2019-01-19T20:53:27.320Z,-3.40
2019-01-19T20:56:04.891Z,-3.40
2019-01-19T20:58:42.447Z,-3.40
2019-01-19T21:01:20.012Z,-3.50
2019-01-19T21:03:57.625Z,-3.50
2019-01-19T21:06:35.169Z,-3.50
2019-01-19T21:09:13.444Z,-3.50
2019-01-19T21:11:50.977Z,-3.50
2019-01-19T21:14:28.575Z,-3.50
2019-01-19T21:17:06.075Z,-3.60
2019-01-19T21:19:43.635Z,-3.60
2019-01-19T21:22:21.135Z,-3.60
2019-01-19T21:24:58.726Z,-3.70
2019-01-19T21:27:36.276Z,-3.70
2019-01-19T21:30:14.599Z,-3.70
2019-01-19T21:32:52.115Z,-3.80
2019-01-19T21:35:29.699Z,-3.90
2019-01-19T21:38:07.260Z,-3.90
2019-01-19T21:40:44.810Z,-4.00
2019-01-19T21:43:22.323Z,-4.00
2019-01-19T21:45:59.864Z,-4.10
2019-01-19T21:48:37.399Z,-4.10
2019-01-19T21:51:15.130Z,-4.10
2019-01-19T21:53:52.662Z,-4.20
2019-01-19T21:56:30.203Z,-4.20
2019-01-19T21:59:07.745Z,-4.30
2019-01-19T22:01:45.272Z,-4.30
2019-01-19T22:04:23.175Z,-4.30
2019-01-19T22:07:00.708Z,-4.30
2019-01-19T22:09:38.257Z,-4.30
2019-01-19T22:12:18.573Z,-4.30
2019-01-19T22:14:56.127Z,-4.30
2019-01-19T22:17:39.485Z,-4.40
2019-01-19T22:20:13.367Z,-4.40
2019-01-19T22:22:50.865Z,-4.40
2019-01-19T22:25:28.846Z,-4.40
2019-01-19T22:28:06.397Z,-4.40
2019-01-19T22:30:44.065Z,-4.40
2019-01-19T22:33:21.656Z,-4.40
2019-01-19T22:35:59.261Z,-4.40
2019-01-19T22:38:36.837Z,-4.50
2019-01-19T22:41:14.436Z,-4.50
2019-01-19T22:43:52.043Z,-4.60
2019-01-19T22:46:29.703Z,-4.70
2019-01-19T22:49:07.414Z,-4.80
2019-01-19T22:51:44.962Z,-4.80
2019-01-19T22:54:22.554Z,-4.90
2019-01-19T22:57:00.187Z,-4.90
2019-01-19T22:59:37.820Z,-4.90
2019-01-19T23:02:16.353Z,-5.00
2019-01-19T23:04:53.964Z,-5.10
2019-01-19T23:07:31.537Z,-5.10
2019-01-19T23:10:09.583Z,-5.20
2019-01-19T23:12:47.158Z,-5.20
2019-01-19T23:15:24.783Z,-5.30
2019-01-19T23:18:02.380Z,-5.30
2019-01-19T23:20:39.882Z,-5.30
2019-01-19T23:23:18.343Z,-5.30
2019-01-19T23:25:55.944Z,-5.30
2019-01-19T23:28:33.541Z,-5.20
2019-01-19T23:31:11.154Z,-5.20
2019-01-19T23:33:48.792Z,-5.30
2019-01-19T23:36:26.383Z,-5.40
2019-01-19T23:39:04.169Z,-5.40
2019-01-19T23:41:41.843Z,-5.50
2019-01-19T23:44:19.543Z,-5.50
2019-01-19T23:46:57.151Z,-5.60
2019-01-19T23:49:34.761Z,-5.70
2019-01-19T23:52:12.229Z,-5.70
2019-01-19T23:54:49.818Z,-5.70
2019-01-19T23:57:27.467Z,-5.70
